sensor_id;sensor_type;location;lat;lon;timestamp;P1;durP1;ratioP1;P2;durP2;ratioP2
76752;SDS011;65687;51.308;16.916;2023-03-12T00:00:40;6.70;;;3.60;;
76752;SDS011;65687;51.308;16.916;2023-03-12T00:06:02;10.40;;;4.90;;
76752;SDS011;65687;51.308;16.916;2023-03-12T00:11:07;12.20;;;5.40;;
76752;SDS011;65687;51.308;16.916;2023-03-12T00:16:13;8.80;;;5.60;;
76752;SDS011;65687;51.308;16.916;2023-03-12T00:21:15;9.80;;;5.70;;
76752;SDS011;65687;51.308;16.916;2023-03-12T00:26:18;9.30;;;5.30;;
76752;SDS011;65687;51.308;16.916;2023-03-12T00:36:27;12.70;;;7.80;;
76752;SDS011;65687;51.308;16.916;2023-03-12T00:41:30;20.80;;;9.20;;
76752;SDS011;65687;51.308;16.916;2023-03-12T00:46:31;23.60;;;11.40;;
76752;SDS011;65687;51.308;16.916;2023-03-12T00:51:31;14.80;;;7.50;;
76752;SDS011;65687;51.308;16.916;2023-03-12T00:56:32;12.90;;;6.00;;
76752;SDS011;65687;51.308;16.916;2023-03-12T01:01:33;16.60;;;9.40;;
76752;SDS011;65687;51.308;16.916;2023-03-12T01:06:34;13.80;;;8.70;;
76752;SDS011;65687;51.308;16.916;2023-03-12T01:11:36;15.90;;;8.60;;
76752;SDS011;65687;51.308;16.916;2023-03-12T01:16:37;15.10;;;6.70;;
76752;SDS011;65687;51.308;16.916;2023-03-12T01:21:38;13.40;;;7.10;;
76752;SDS011;65687;51.308;16.916;2023-03-12T01:26:39;10.00;;;5.20;;
76752;SDS011;65687;51.308;16.916;2023-03-12T01:31:40;9.70;;;5.60;;
76752;SDS011;65687;51.308;16.916;2023-03-12T01:36:41;11.00;;;5.80;;
76752;SDS011;65687;51.308;16.916;2023-03-12T01:41:42;8.50;;;4.40;;
76752;SDS011;65687;51.308;16.916;2023-03-12T01:46:43;7.70;;;4.20;;
76752;SDS011;65687;51.308;16.916;2023-03-12T01:51:55;11.70;;;6.10;;
76752;SDS011;65687;51.308;16.916;2023-03-12T01:56:57;9.90;;;5.50;;
76752;SDS011;65687;51.308;16.916;2023-03-12T02:02:00;9.30;;;6.00;;
76752;SDS011;65687;51.308;16.916;2023-03-12T02:07:13;6.50;;;3.90;;
76752;SDS011;65687;51.308;16.916;2023-03-12T02:12:15;6.80;;;4.20;;
76752;SDS011;65687;51.308;16.916;2023-03-12T02:17:17;8.00;;;3.40;;
76752;SDS011;65687;51.308;16.916;2023-03-12T02:22:18;4.30;;;2.80;;
76752;SDS011;65687;51.308;16.916;2023-03-12T02:27:20;6.10;;;4.00;;
76752;SDS011;65687;51.308;16.916;2023-03-12T02:32:23;5.40;;;2.20;;
76752;SDS011;65687;51.308;16.916;2023-03-12T02:37:27;6.10;;;3.90;;
76752;SDS011;65687;51.308;16.916;2023-03-12T02:42:28;6.90;;;4.10;;
76752;SDS011;65687;51.308;16.916;2023-03-12T02:47:29;4.90;;;3.30;;
76752;SDS011;65687;51.308;16.916;2023-03-12T02:52:30;6.80;;;3.10;;
76752;SDS011;65687;51.308;16.916;2023-03-12T02:57:35;6.70;;;2.30;;
76752;SDS011;65687;51.308;16.916;2023-03-12T03:02:37;4.50;;;2.70;;
76752;SDS011;65687;51.308;16.916;2023-03-12T03:07:38;7.20;;;3.60;;
76752;SDS011;65687;51.308;16.916;2023-03-12T03:12:39;6.90;;;3.50;;
76752;SDS011;65687;51.308;16.916;2023-03-12T03:17:40;6.40;;;3.40;;
76752;SDS011;65687;51.308;16.916;2023-03-12T03:22:41;7.90;;;3.40;;
76752;SDS011;65687;51.308;16.916;2023-03-12T03:27:42;4.80;;;2.50;;
76752;SDS011;65687;51.308;16.916;2023-03-12T03:32:43;5.40;;;3.80;;
76752;SDS011;65687;51.308;16.916;2023-03-12T03:37:43;6.90;;;3.60;;
76752;SDS011;65687;51.308;16.916;2023-03-12T03:42:44;7.10;;;3.60;;
76752;SDS011;65687;51.308;16.916;2023-03-12T03:47:45;5.20;;;3.20;;
76752;SDS011;65687;51.308;16.916;2023-03-12T03:52:46;5.30;;;2.60;;
76752;SDS011;65687;51.308;16.916;2023-03-12T03:57:47;4.80;;;3.00;;
76752;SDS011;65687;51.308;16.916;2023-03-12T04:02:47;6.60;;;3.30;;
76752;SDS011;65687;51.308;16.916;2023-03-12T04:07:50;6.90;;;2.80;;
76752;SDS011;65687;51.308;16.916;2023-03-12T04:12:51;4.00;;;2.80;;
76752;SDS011;65687;51.308;16.916;2023-03-12T04:17:53;4.80;;;2.70;;
76752;SDS011;65687;51.308;16.916;2023-03-12T04:22:54;4.40;;;2.30;;
76752;SDS011;65687;51.308;16.916;2023-03-12T04:27:55;6.40;;;3.70;;
76752;SDS011;65687;51.308;16.916;2023-03-12T04:32:55;5.70;;;3.30;;
76752;SDS011;65687;51.308;16.916;2023-03-12T04:37:56;6.50;;;3.50;;
76752;SDS011;65687;51.308;16.916;2023-03-12T04:42:57;2.60;;;1.80;;
76752;SDS011;65687;51.308;16.916;2023-03-12T04:47:58;6.20;;;2.60;;
76752;SDS011;65687;51.308;16.916;2023-03-12T04:52:59;2.40;;;1.70;;
76752;SDS011;65687;51.308;16.916;2023-03-12T04:57:59;3.90;;;2.10;;
76752;SDS011;65687;51.308;16.916;2023-03-12T05:03:00;6.10;;;2.90;;
76752;SDS011;65687;51.308;16.916;2023-03-12T05:08:02;7.30;;;3.50;;
76752;SDS011;65687;51.308;16.916;2023-03-12T05:13:03;4.60;;;2.70;;
76752;SDS011;65687;51.308;16.916;2023-03-12T05:18:04;5.30;;;2.70;;
76752;SDS011;65687;51.308;16.916;2023-03-12T05:23:05;4.60;;;2.80;;
76752;SDS011;65687;51.308;16.916;2023-03-12T05:28:06;3.40;;;2.20;;
76752;SDS011;65687;51.308;16.916;2023-03-12T05:33:07;5.50;;;2.10;;
76752;SDS011;65687;51.308;16.916;2023-03-12T05:38:08;7.00;;;2.60;;
76752;SDS011;65687;51.308;16.916;2023-03-12T05:43:09;8.40;;;4.00;;
76752;SDS011;65687;51.308;16.916;2023-03-12T05:48:10;11.20;;;3.90;;
76752;SDS011;65687;51.308;16.916;2023-03-12T05:53:11;20.40;;;8.10;;
76752;SDS011;65687;51.308;16.916;2023-03-12T05:58:12;6.70;;;3.60;;
76752;SDS011;65687;51.308;16.916;2023-03-12T06:03:13;14.60;;;7.20;;
76752;SDS011;65687;51.308;16.916;2023-03-12T06:08:14;10.60;;;5.20;;
76752;SDS011;65687;51.308;16.916;2023-03-12T06:13:14;5.30;;;2.90;;
76752;SDS011;65687;51.308;16.916;2023-03-12T06:18:15;6.10;;;3.00;;
76752;SDS011;65687;51.308;16.916;2023-03-12T06:23:16;3.70;;;2.30;;
76752;SDS011;65687;51.308;16.916;2023-03-12T06:28:17;5.60;;;3.30;;
76752;SDS011;65687;51.308;16.916;2023-03-12T06:33:18;4.00;;;2.80;;
76752;SDS011;65687;51.308;16.916;2023-03-12T06:38:19;11.30;;;4.50;;
76752;SDS011;65687;51.308;16.916;2023-03-12T06:43:20;7.80;;;2.80;;
76752;SDS011;65687;51.308;16.916;2023-03-12T06:48:21;3.00;;;1.70;;
76752;SDS011;65687;51.308;16.916;2023-03-12T06:53:23;3.80;;;2.50;;
76752;SDS011;65687;51.308;16.916;2023-03-12T06:58:25;3.40;;;2.10;;
76752;SDS011;65687;51.308;16.916;2023-03-12T07:03:26;6.00;;;3.50;;
76752;SDS011;65687;51.308;16.916;2023-03-12T07:08:27;6.80;;;2.70;;
76752;SDS011;65687;51.308;16.916;2023-03-12T07:13:31;5.00;;;3.20;;
76752;SDS011;65687;51.308;16.916;2023-03-12T07:18:32;10.30;;;3.20;;
76752;SDS011;65687;51.308;16.916;2023-03-12T07:23:34;4.50;;;2.60;;
76752;SDS011;65687;51.308;16.916;2023-03-12T07:28:35;7.90;;;3.40;;
76752;SDS011;65687;51.308;16.916;2023-03-12T07:33:37;4.10;;;2.50;;
76752;SDS011;65687;51.308;16.916;2023-03-12T07:38:38;4.70;;;2.80;;
76752;SDS011;65687;51.308;16.916;2023-03-12T07:43:39;9.00;;;3.80;;
76752;SDS011;65687;51.308;16.916;2023-03-12T07:48:40;4.90;;;2.50;;
76752;SDS011;65687;51.308;16.916;2023-03-12T07:53:41;6.00;;;2.80;;
76752;SDS011;65687;51.308;16.916;2023-03-12T07:58:43;8.80;;;3.90;;
76752;SDS011;65687;51.308;16.916;2023-03-12T08:03:44;6.40;;;4.00;;
76752;SDS011;65687;51.308;16.916;2023-03-12T08:08:45;4.80;;;2.40;;
76752;SDS011;65687;51.308;16.916;2023-03-12T08:13:46;6.50;;;3.10;;
76752;SDS011;65687;51.308;16.916;2023-03-12T08:18:48;8.70;;;4.20;;
76752;SDS011;65687;51.308;16.916;2023-03-12T08:23:49;5.50;;;2.60;;
76752;SDS011;65687;51.308;16.916;2023-03-12T08:28:50;8.00;;;2.80;;
76752;SDS011;65687;51.308;16.916;2023-03-12T08:33:51;4.30;;;2.70;;
76752;SDS011;65687;51.308;16.916;2023-03-12T08:38:52;3.30;;;2.30;;
76752;SDS011;65687;51.308;16.916;2023-03-12T08:43:53;6.30;;;2.80;;
76752;SDS011;65687;51.308;16.916;2023-03-12T08:48:55;5.30;;;2.50;;
76752;SDS011;65687;51.308;16.916;2023-03-12T08:53:56;6.20;;;2.40;;
76752;SDS011;65687;51.308;16.916;2023-03-12T08:58:57;9.50;;;3.70;;
76752;SDS011;65687;51.308;16.916;2023-03-12T09:03:59;9.60;;;3.80;;
76752;SDS011;65687;51.308;16.916;2023-03-12T09:09:02;7.60;;;3.90;;
76752;SDS011;65687;51.308;16.916;2023-03-12T09:19:06;6.80;;;2.80;;
76752;SDS011;65687;51.308;16.916;2023-03-12T09:24:07;4.40;;;2.80;;
76752;SDS011;65687;51.308;16.916;2023-03-12T09:29:09;4.00;;;2.30;;
76752;SDS011;65687;51.308;16.916;2023-03-12T09:34:10;4.00;;;2.00;;
76752;SDS011;65687;51.308;16.916;2023-03-12T09:39:11;3.70;;;2.10;;
76752;SDS011;65687;51.308;16.916;2023-03-12T09:49:37;5.00;;;2.40;;
76752;SDS011;65687;51.308;16.916;2023-03-12T10:00:15;7.90;;;2.80;;
76752;SDS011;65687;51.308;16.916;2023-03-12T10:05:23;9.20;;;3.90;;
76752;SDS011;65687;51.308;16.916;2023-03-12T10:10:36;11.80;;;7.00;;
76752;SDS011;65687;51.308;16.916;2023-03-12T10:15:47;11.40;;;5.20;;
76752;SDS011;65687;51.308;16.916;2023-03-12T10:26:24;9.50;;;3.70;;
76752;SDS011;65687;51.308;16.916;2023-03-12T10:31:27;8.90;;;4.00;;
76752;SDS011;65687;51.308;16.916;2023-03-12T10:41:41;6.30;;;3.30;;
76752;SDS011;65687;51.308;16.916;2023-03-12T10:47:04;6.00;;;2.60;;
76752;SDS011;65687;51.308;16.916;2023-03-12T10:52:14;12.10;;;5.90;;
76752;SDS011;65687;51.308;16.916;2023-03-12T10:57:17;9.00;;;4.70;;
76752;SDS011;65687;51.308;16.916;2023-03-12T11:08:03;7.40;;;3.70;;
76752;SDS011;65687;51.308;16.916;2023-03-12T11:13:28;2.80;;;1.70;;
76752;SDS011;65687;51.308;16.916;2023-03-12T11:18:36;2.90;;;1.80;;
76752;SDS011;65687;51.308;16.916;2023-03-12T11:23:39;4.00;;;2.00;;
76752;SDS011;65687;51.308;16.916;2023-03-12T11:28:52;5.50;;;2.50;;
76752;SDS011;65687;51.308;16.916;2023-03-12T11:34:20;5.10;;;2.50;;
76752;SDS011;65687;51.308;16.916;2023-03-12T12:01:51;3.40;;;2.40;;
76752;SDS011;65687;51.308;16.916;2023-03-12T12:12:36;4.50;;;2.60;;
76752;SDS011;65687;51.308;16.916;2023-03-12T12:39:38;7.90;;;3.70;;
76752;SDS011;65687;51.308;16.916;2023-03-12T12:44:48;8.30;;;4.10;;
76752;SDS011;65687;51.308;16.916;2023-03-12T12:49:55;30.20;;;9.50;;
76752;SDS011;65687;51.308;16.916;2023-03-12T13:15:35;10.20;;;6.20;;
76752;SDS011;65687;51.308;16.916;2023-03-12T13:41:41;5.00;;;2.80;;
76752;SDS011;65687;51.308;16.916;2023-03-12T13:57:46;6.10;;;3.60;;
76752;SDS011;65687;51.308;16.916;2023-03-12T14:03:32;7.10;;;3.40;;
76752;SDS011;65687;51.308;16.916;2023-03-12T14:19:46;5.70;;;2.90;;
76752;SDS011;65687;51.308;16.916;2023-03-12T14:24:55;8.90;;;4.20;;
76752;SDS011;65687;51.308;16.916;2023-03-12T14:30:11;14.30;;;5.80;;
76752;SDS011;65687;51.308;16.916;2023-03-12T14:35:20;4.90;;;3.00;;
76752;SDS011;65687;51.308;16.916;2023-03-12T14:46:11;8.90;;;4.00;;
76752;SDS011;65687;51.308;16.916;2023-03-12T14:51:19;5.30;;;3.70;;
76752;SDS011;65687;51.308;16.916;2023-03-12T15:01:30;8.20;;;4.10;;
76752;SDS011;65687;51.308;16.916;2023-03-12T15:06:33;6.20;;;3.60;;
76752;SDS011;65687;51.308;16.916;2023-03-12T15:11:53;9.10;;;3.50;;
76752;SDS011;65687;51.308;16.916;2023-03-12T15:17:06;23.20;;;10.60;;
76752;SDS011;65687;51.308;16.916;2023-03-12T15:22:14;17.40;;;8.50;;
76752;SDS011;65687;51.308;16.916;2023-03-12T15:32:22;24.90;;;11.80;;
76752;SDS011;65687;51.308;16.916;2023-03-12T15:37:26;19.50;;;8.50;;
76752;SDS011;65687;51.308;16.916;2023-03-12T15:42:39;22.90;;;13.10;;
76752;SDS011;65687;51.308;16.916;2023-03-12T15:47:42;13.70;;;7.30;;
76752;SDS011;65687;51.308;16.916;2023-03-12T15:58:03;10.90;;;6.60;;
76752;SDS011;65687;51.308;16.916;2023-03-12T16:03:24;8.30;;;4.30;;
76752;SDS011;65687;51.308;16.916;2023-03-12T16:08:26;14.30;;;7.40;;
76752;SDS011;65687;51.308;16.916;2023-03-12T16:13:40;12.70;;;6.00;;
76752;SDS011;65687;51.308;16.916;2023-03-12T16:18:42;9.60;;;4.60;;
76752;SDS011;65687;51.308;16.916;2023-03-12T16:23:44;8.70;;;4.90;;
76752;SDS011;65687;51.308;16.916;2023-03-12T16:28:45;9.20;;;5.10;;
76752;SDS011;65687;51.308;16.916;2023-03-12T16:33:46;10.60;;;4.90;;
76752;SDS011;65687;51.308;16.916;2023-03-12T16:38:47;7.30;;;4.90;;
76752;SDS011;65687;51.308;16.916;2023-03-12T16:43:48;5.40;;;3.10;;
76752;SDS011;65687;51.308;16.916;2023-03-12T16:48:53;9.80;;;4.90;;
76752;SDS011;65687;51.308;16.916;2023-03-12T16:53:54;11.60;;;5.90;;
76752;SDS011;65687;51.308;16.916;2023-03-12T16:58:56;14.10;;;7.60;;
76752;SDS011;65687;51.308;16.916;2023-03-12T17:04:02;24.70;;;9.40;;
76752;SDS011;65687;51.308;16.916;2023-03-12T17:09:04;13.40;;;6.70;;
76752;SDS011;65687;51.308;16.916;2023-03-12T17:14:12;11.60;;;7.00;;
76752;SDS011;65687;51.308;16.916;2023-03-12T17:19:16;14.40;;;6.70;;
76752;SDS011;65687;51.308;16.916;2023-03-12T17:24:17;28.70;;;12.60;;
76752;SDS011;65687;51.308;16.916;2023-03-12T17:29:18;12.50;;;6.60;;
76752;SDS011;65687;51.308;16.916;2023-03-12T17:34:19;18.30;;;9.20;;
76752;SDS011;65687;51.308;16.916;2023-03-12T17:39:20;26.60;;;13.00;;
76752;SDS011;65687;51.308;16.916;2023-03-12T17:44:21;23.00;;;11.10;;
76752;SDS011;65687;51.308;16.916;2023-03-12T17:49:21;17.50;;;8.00;;
76752;SDS011;65687;51.308;16.916;2023-03-12T17:54:23;17.80;;;9.30;;
76752;SDS011;65687;51.308;16.916;2023-03-12T17:59:24;30.30;;;13.30;;
76752;SDS011;65687;51.308;16.916;2023-03-12T18:04:25;26.40;;;12.90;;
76752;SDS011;65687;51.308;16.916;2023-03-12T18:09:26;25.30;;;9.50;;
76752;SDS011;65687;51.308;16.916;2023-03-12T18:14:28;11.50;;;4.90;;
76752;SDS011;65687;51.308;16.916;2023-03-12T18:19:30;17.50;;;8.40;;
76752;SDS011;65687;51.308;16.916;2023-03-12T18:24:31;13.40;;;6.80;;
76752;SDS011;65687;51.308;16.916;2023-03-12T18:29:32;14.50;;;8.30;;
76752;SDS011;65687;51.308;16.916;2023-03-12T18:34:35;11.70;;;5.50;;
76752;SDS011;65687;51.308;16.916;2023-03-12T18:39:37;10.60;;;4.90;;
76752;SDS011;65687;51.308;16.916;2023-03-12T18:44:38;7.90;;;3.90;;
76752;SDS011;65687;51.308;16.916;2023-03-12T18:49:39;8.80;;;4.80;;
76752;SDS011;65687;51.308;16.916;2023-03-12T18:54:39;13.90;;;5.90;;
76752;SDS011;65687;51.308;16.916;2023-03-12T18:59:40;10.60;;;5.00;;
76752;SDS011;65687;51.308;16.916;2023-03-12T19:04:46;15.80;;;7.60;;
76752;SDS011;65687;51.308;16.916;2023-03-12T19:09:46;18.10;;;7.20;;
76752;SDS011;65687;51.308;16.916;2023-03-12T19:14:47;17.50;;;7.90;;
76752;SDS011;65687;51.308;16.916;2023-03-12T19:19:48;15.70;;;8.40;;
76752;SDS011;65687;51.308;16.916;2023-03-12T19:24:49;22.40;;;10.00;;
76752;SDS011;65687;51.308;16.916;2023-03-12T19:29:50;45.30;;;15.00;;
76752;SDS011;65687;51.308;16.916;2023-03-12T19:34:51;11.20;;;5.90;;
76752;SDS011;65687;51.308;16.916;2023-03-12T19:39:52;15.20;;;7.60;;
76752;SDS011;65687;51.308;16.916;2023-03-12T19:44:53;29.10;;;12.20;;
76752;SDS011;65687;51.308;16.916;2023-03-12T19:49:53;19.30;;;9.60;;
76752;SDS011;65687;51.308;16.916;2023-03-12T19:54:54;20.20;;;9.30;;
76752;SDS011;65687;51.308;16.916;2023-03-12T19:59:55;17.00;;;9.80;;
76752;SDS011;65687;51.308;16.916;2023-03-12T20:04:56;14.10;;;7.30;;
76752;SDS011;65687;51.308;16.916;2023-03-12T20:09:57;28.00;;;12.80;;
76752;SDS011;65687;51.308;16.916;2023-03-12T20:14:57;18.50;;;8.80;;
76752;SDS011;65687;51.308;16.916;2023-03-12T20:19:58;15.60;;;6.70;;
76752;SDS011;65687;51.308;16.916;2023-03-12T20:25:01;11.60;;;5.60;;
76752;SDS011;65687;51.308;16.916;2023-03-12T20:30:03;9.30;;;6.40;;
76752;SDS011;65687;51.308;16.916;2023-03-12T20:35:05;12.80;;;7.20;;
76752;SDS011;65687;51.308;16.916;2023-03-12T20:40:06;12.30;;;6.60;;
76752;SDS011;65687;51.308;16.916;2023-03-12T20:45:08;8.00;;;4.90;;
76752;SDS011;65687;51.308;16.916;2023-03-12T20:50:09;6.80;;;2.70;;
76752;SDS011;65687;51.308;16.916;2023-03-12T20:55:10;8.20;;;4.40;;
76752;SDS011;65687;51.308;16.916;2023-03-12T21:00:11;5.30;;;3.10;;
76752;SDS011;65687;51.308;16.916;2023-03-12T21:05:12;7.40;;;5.30;;
76752;SDS011;65687;51.308;16.916;2023-03-12T21:10:14;11.10;;;5.70;;
76752;SDS011;65687;51.308;16.916;2023-03-12T21:15:15;9.50;;;4.80;;
76752;SDS011;65687;51.308;16.916;2023-03-12T21:20:16;7.90;;;4.50;;
76752;SDS011;65687;51.308;16.916;2023-03-12T21:25:18;8.20;;;4.80;;
76752;SDS011;65687;51.308;16.916;2023-03-12T21:30:18;8.30;;;4.20;;
76752;SDS011;65687;51.308;16.916;2023-03-12T21:35:19;6.10;;;3.70;;
76752;SDS011;65687;51.308;16.916;2023-03-12T21:40:21;8.30;;;4.70;;
76752;SDS011;65687;51.308;16.916;2023-03-12T21:45:22;11.20;;;6.80;;
76752;SDS011;65687;51.308;16.916;2023-03-12T21:50:23;10.00;;;7.00;;
76752;SDS011;65687;51.308;16.916;2023-03-12T21:55:24;14.30;;;7.00;;
76752;SDS011;65687;51.308;16.916;2023-03-12T22:00:25;9.50;;;6.10;;
76752;SDS011;65687;51.308;16.916;2023-03-12T22:05:26;12.90;;;7.30;;
76752;SDS011;65687;51.308;16.916;2023-03-12T22:10:27;14.80;;;8.40;;
76752;SDS011;65687;51.308;16.916;2023-03-12T22:15:27;15.70;;;7.50;;
76752;SDS011;65687;51.308;16.916;2023-03-12T22:20:31;18.00;;;9.60;;
76752;SDS011;65687;51.308;16.916;2023-03-12T22:25:35;17.90;;;10.00;;
76752;SDS011;65687;51.308;16.916;2023-03-12T22:30:36;15.70;;;9.00;;
76752;SDS011;65687;51.308;16.916;2023-03-12T22:35:43;13.60;;;7.50;;
76752;SDS011;65687;51.308;16.916;2023-03-12T22:40:45;15.60;;;7.40;;
76752;SDS011;65687;51.308;16.916;2023-03-12T22:45:51;17.40;;;8.40;;
76752;SDS011;65687;51.308;16.916;2023-03-12T22:50:53;15.10;;;7.90;;
76752;SDS011;65687;51.308;16.916;2023-03-12T22:55:58;14.30;;;8.70;;
76752;SDS011;65687;51.308;16.916;2023-03-12T23:06:09;13.00;;;6.50;;
76752;SDS011;65687;51.308;16.916;2023-03-12T23:11:15;11.70;;;7.00;;
76752;SDS011;65687;51.308;16.916;2023-03-12T23:16:18;12.70;;;7.40;;
76752;SDS011;65687;51.308;16.916;2023-03-12T23:21:23;8.40;;;6.10;;
76752;SDS011;65687;51.308;16.916;2023-03-12T23:26:25;7.90;;;5.10;;
76752;SDS011;65687;51.308;16.916;2023-03-12T23:31:27;8.00;;;5.30;;
76752;SDS011;65687;51.308;16.916;2023-03-12T23:36:28;12.10;;;6.50;;
76752;SDS011;65687;51.308;16.916;2023-03-12T23:41:29;9.70;;;6.30;;
76752;SDS011;65687;51.308;16.916;2023-03-12T23:46:30;11.20;;;7.30;;
76752;SDS011;65687;51.308;16.916;2023-03-12T23:51:32;9.80;;;6.20;;
76752;SDS011;65687;51.308;16.916;2023-03-12T23:56:33;8.80;;;5.70;;
